Flight Track Log - Related Links

Times and Time Zones

All times are in EDT time to prevent confusion due to time zone crossing. See the SKQ35 flight status page for this flight to view local times or setup timezone preferences in your user account.

Time Position Orientation Groundspeed Altitude Reporting Facility
EDT Latitude Longitude Course Direction KTS MPH feet Rate Location/Type
Sat 09:38:47 AM 33.5661 -86.7511 53° Northeast 125 144 1,200  Level Atlanta Center
Sat 09:39:23 AM 33.5814 -86.7267 53° Northeast 145 167 2,000 1,319 Climbing Atlanta Center
Sat 09:40:18 AM 33.6050 -86.6925 50° Northeast 171 197 3,200 1,397 Climbing Atlanta Center
Sat 09:41:19 AM 33.6353 -86.6411 55° Northeast 179 206 4,700 1,328 Climbing Atlanta Center
Sat 09:42:20 AM 33.6656 -86.5897 55° Northeast 183 211 5,900 1,240 Climbing Atlanta Center
Sat 09:43:20 AM 33.6936 -86.5431 54° Northeast 191 220 7,200 1,250 Climbing Atlanta Center
Sat 09:44:20 AM 33.7239 -86.4939 53° Northeast 186 214 8,400 1,250 Climbing Atlanta Center
Sat 09:45:20 AM 33.7561 -86.4450 52° Northeast 186 214 9,700 1,350 Climbing Atlanta Center
Sat 09:46:20 AM 33.7864 -86.3958 53° Northeast 181 208 11,100 1,350 Climbing Atlanta Center
Sat 09:47:20 AM 33.8164 -86.3442 55° Northeast 181 208 12,400 1,250 Climbing Atlanta Center
Sat 09:48:20 AM 33.8489 -86.2925 53° Northeast 181 208 13,600 1,250 Climbing Atlanta Center
Sat 09:49:20 AM 33.8811 -86.2433 52° Northeast 181 208 14,900 1,250 Climbing Atlanta Center
Sat 09:50:20 AM 33.9111 -86.1914 55° Northeast 181 208 16,100 1,200 Climbing Atlanta Center
Sat 09:51:20 AM 33.9411 -86.1422 54° Northeast 187 215 17,300 1,050 Climbing Atlanta Center
Sat 09:52:20 AM 33.9733 -86.0903 53° Northeast 187 215 18,200 850 Climbing Atlanta Center
Sat 09:53:20 AM 33.9931 -86.0356 66° East 182 209 19,000 400 Climbing Atlanta Center
Sat 09:54:20 AM 34.0172 -85.9661 67° East 196 226 19,000  Level Atlanta Center
Sat 09:55:20 AM 34.0433 -85.8914 67° East 221 254 19,000  Level Atlanta Center
Sat 09:56:20 AM 34.0717 -85.8144 66° East 236 272 19,000  Level Atlanta Center
Sat 09:57:20 AM 34.0997 -85.7472 63° Northeast 244 281 19,000  Level Atlanta Center
Sat 09:58:20 AM 34.1239 -85.6622 71° East 244 281 19,000  Level Atlanta Center
Sat 09:59:20 AM 34.1519 -85.5825 67° East 249 287 19,000  Level Atlanta Center
Sat 10:00:20 AM 34.1800 -85.5053 66° East 249 287 19,000  Level Atlanta Center
Sat 10:01:20 AM 34.2058 -85.4278 68° East 249 287 19,000  Level Atlanta Center
Sat 10:02:20 AM 34.2319 -85.3503 68° East 249 287 19,000  Level Atlanta Center
Sat 10:03:20 AM 34.2597 -85.2728 67° East 249 287 19,000  Level Atlanta Center
Sat 10:04:20 AM 34.2878 -85.1928 67° East 249 287 19,000  Level Atlanta Center
Sat 10:05:20 AM 34.3156 -85.1128 67° East 249 287 19,000  Level Atlanta Center
Sat 10:06:20 AM 34.3392 -85.0400 69° East 249 287 19,000  Level Atlanta Center
Sat 10:07:20 AM 34.3647 -84.9622 68° East 249 287 19,000  Level Atlanta Center
Sat 10:08:20 AM 34.3903 -84.8819 69° East 249 287 19,000  Level Atlanta Center
Sat 10:09:20 AM 34.4181 -84.8017 67° East 249 287 19,000  Level Atlanta Center
Sat 10:10:20 AM 34.4456 -84.7214 67° East 249 287 19,000  Level Atlanta Center
Sat 10:11:20 AM 34.4733 -84.6333 69° East 249 287 19,000  Level Atlanta Center
Sat 10:12:20 AM 34.5028 -84.5506 67° East 249 287 19,000  Level Atlanta Center
Sat 10:13:20 AM 34.5281 -84.4700 69° East 249 287 19,000  Level Atlanta Center
Sat 10:14:20 AM 34.5533 -84.3919 69° East 254 292 19,000  Level Atlanta Center
Sat 10:15:20 AM 34.5808 -84.3114 67° East 247 284 19,000  Level Atlanta Center
Sat 10:16:20 AM 34.6061 -84.2281 70° East 247 284 19,000  Level Atlanta Center
Sat 10:17:20 AM 34.6333 -84.1472 68° East 247 284 19,000  Level Atlanta Center
Sat 10:18:20 AM 34.6603 -84.0639 69° East 252 290 19,000  Level Atlanta Center
Sat 10:19:20 AM 34.6833 -83.9958 68° East 247 284 19,000  Level Atlanta Center
Sat 10:20:20 AM 34.7083 -83.9150 69° East 247 284 19,000  Level Atlanta Center
Sat 10:21:20 AM 34.7353 -83.8289 69° East 259 298 19,000  Level Atlanta Center
Sat 10:22:20 AM 34.7644 -83.7456 67° East 259 298 19,000  Level Atlanta Center
Sat 10:23:20 AM 34.7892 -83.6619 70° East 264 304 19,000  Level Atlanta Center
Sat 10:24:20 AM 34.8161 -83.5833 67° East 259 298 19,000  Level Atlanta Center
Sat 10:25:20 AM 34.8428 -83.4947 70° East 247 284 19,000  Level Atlanta Center
Sat 10:26:20 AM 34.8694 -83.4133 68° East 252 290 19,000  Level Atlanta Center
Sat 10:27:20 AM 34.8961 -83.3297 69° East 252 290 19,000  Level Atlanta Center
Sat 10:28:20 AM 34.9208 -83.2508 69° East 252 290 19,000  Level Atlanta Center
Sat 10:29:20 AM 34.9494 -83.1644 68° East 252 290 19,000  Level Atlanta Center
Sat 10:30:20 AM 34.9758 -83.0806 69° East 252 290 19,000  Level Atlanta Center
Sat 10:31:20 AM 35.0003 -83.0042 69° East 252 290 19,000  Level Atlanta Center
Sat 10:32:20 AM 35.0267 -82.9150 70° East 252 290 19,000  Level Atlanta Center
Sat 10:33:20 AM 35.0531 -82.8361 68° East 252 290 19,000  Level Atlanta Center
Sat 10:34:20 AM 35.0772 -82.7597 69° East 252 290 19,000  Level Atlanta Center
Sat 10:35:20 AM 35.1036 -82.6756 69° East 252 290 19,000  Level Atlanta Center
Sat 10:36:20 AM 35.1297 -82.5964 68° East 252 290 19,000  Level Atlanta Center
Sat 10:37:20 AM 35.1539 -82.5147 70° East 247 284 19,000  Level Atlanta Center
Sat 10:38:20 AM 35.1778 -82.4406 68° East 247 284 19,000  Level Atlanta Center
Sat 10:39:20 AM 35.2058 -82.3533 68° East 252 290 19,000  Level Atlanta Center
Sat 10:40:20 AM 35.2297 -82.2717 70° East 252 290 19,000  Level Atlanta Center
Sat 10:41:20 AM 35.2536 -82.1922 70° East 252 290 19,000  Level Atlanta Center
Sat 10:42:20 AM 35.2794 -82.1103 69° East 252 290 19,000  Level Atlanta Center
Sat 10:43:20 AM 35.3033 -82.0308 70° East 252 290 19,000  Level Atlanta Center
Sat 10:44:20 AM 35.3292 -81.9486 69° East 247 284 19,000  Level Atlanta Center
Sat 10:45:20 AM 35.3528 -81.8667 71° East 247 284 19,000  Level Atlanta Center
Sat 10:46:20 AM 35.3744 -81.7947 70° East 253 291 19,000  Level Atlanta Center
Sat 10:47:20 AM 35.4000 -81.7125 69° East 253 291 19,000  Level Atlanta Center
Sat 10:48:20 AM 35.4233 -81.6303 71° East 247 284 19,000  Level Atlanta Center
Sat 10:49:20 AM 35.4489 -81.5481 69° East 253 291 19,000  Level Atlanta Center
Sat 10:50:20 AM 35.4742 -81.4656 69° East 248 285 19,000  Level Atlanta Center
Sat 10:51:20 AM 35.4997 -81.3806 70° East 248 285 19,000  Level Atlanta Center
Sat 10:52:20 AM 35.5208 -81.2983 72° East 248 285 19,000  Level Atlanta Center
Sat 10:53:20 AM 35.5481 -81.2106 69° East 259 298 19,000  Level Atlanta Center
Sat 10:54:20 AM 35.5731 -81.1231 71° East 268 308 19,000  Level Atlanta Center
Sat 10:55:20 AM 35.6003 -81.0378 69° East 268 308 19,000  Level Atlanta Center
Sat 10:56:20 AM 35.6253 -80.9550 70° East 268 308 19,000  Level Atlanta Center
Sat 10:57:20 AM 35.6503 -80.8697 70° East 263 303 19,000  Level Atlanta Center
Sat 10:58:20 AM 35.6750 -80.7844 70° East 263 303 19,000 -400 Level Atlanta Center
Sat 10:59:20 AM 35.7017 -80.6886 71° East 263 303 18,200 -750 Descending Atlanta Center
Sat 11:00:20 AM 35.7283 -80.5956 71° East 275 316 17,500 -850 Descending Atlanta Center
Sat 11:01:20 AM 35.7550 -80.5050 70° East 280 322 16,500 -1,050 Descending Atlanta Center
Sat 11:02:20 AM 35.7817 -80.4142 70° East 275 316 15,400 -1,050 Descending Atlanta Center
Sat 11:03:20 AM 35.8058 -80.3233 72° East 275 316 14,400 -950 Descending Atlanta Center
Sat 11:04:20 AM 35.8322 -80.2275 71° East 275 316 13,500 -700 Descending Atlanta Center
Sat 11:05:20 AM 35.8569 -80.1519 68° East 275 316 13,000 -600 Descending Atlanta Center
Sat 11:06:20 AM 35.8814 -80.0636 71° East 270 311 12,300 -950 Descending Atlanta Center
Sat 11:07:20 AM 35.9056 -79.9753 71° East 270 311 11,100 -1,400 Descending Atlanta Center
Sat 11:08:20 AM 35.9042 -79.8756 91° East 264 304 9,500 -1,600 Descending Atlanta Center
Sat 11:09:20 AM 35.9033 -79.7883 91° East 259 298 7,900 -1,650 Descending Atlanta Center
Sat 11:10:20 AM 35.9044 -79.7011 89° East 253 291 6,200 -1,700 Descending Atlanta Center
Sat 11:12:00 AM 35.9725 -79.5944 76° East  Level Estimated
Sat 11:19:00 AM 36.0333 -79.4667 73° East  Level FlightAware Approximate
Sat 11:20:00 AM 36.0485 -79.4749 73° East  Level Estimated
Sat 11:21:00 AM 36.0485 -79.4749 73° East  Level Estimated
Sat 11:22:00 AM 36.0485 -79.4749 73° East  Level Estimated
Sat 11:23:00 AM 36.0485 -79.4749 73° East  Level Estimated

Login

Don't have an account? Register now (free) for customized features, flight alerts, and more!